Grand River, Iowa
Current Conditions -  °F | °C
As of 6:53 AM on Saturday 20 Dec 2014 (Local Time) from KLWD Reporting Station
Haze Haze  
Wind Chill: 25°   Ceiling: 400
Heat Index: 31°   Visibility: 2mi
Dew Point: 30°   Wind: 6mph
Humidity: 96%   Direction: 190°S
Pressure: 30.16"   Gusts: NA
Location:  40.82°N, 93.96°W
Report Text: KLWD 201253Z AUTO 19005KT 2SM BR OVC004 M01/M01 A3016 RMK AO2 SLP227 I1001 T10061011
Loading
Personal Weather Stations






























Interactive Weather Map New forecast layout! Learn more

10-Day Weather Forecast

Advertisements
Track Severe Weather on mobile